createdAt,value
2023-03-22T00:02:30.388Z,99857.17
2023-03-22T00:03:40.929Z,99854.44
2023-03-22T00:06:07.512Z,99855.24
2023-03-22T00:08:32.346Z,99864.55
2023-03-22T00:10:57.718Z,99859.78
2023-03-22T00:12:09.077Z,99864.03
2023-03-22T00:14:33.887Z,99868.48
2023-03-22T00:15:45.918Z,99873.70
2023-03-22T00:18:13.462Z,99863.95
2023-03-22T00:20:40.325Z,99864.19
2023-03-22T00:21:52.056Z,99872.09
2023-03-22T00:24:18.464Z,99862.70
2023-03-22T00:26:44.406Z,99867.24
2023-03-22T00:30:17.830Z,99863.06
2023-03-22T00:31:27.126Z,99871.17
2023-03-22T00:32:38.044Z,99873.98
2023-03-22T00:35:02.484Z,99867.56
2023-03-22T00:37:30.136Z,99867.56
2023-03-22T00:38:44.123Z,99876.34
2023-03-22T00:41:18.198Z,99865.64
2023-03-22T00:43:43.078Z,99868.09
2023-03-22T00:44:52.173Z,99866.32
2023-03-22T00:47:16.691Z,99860.98
2023-03-22T00:48:25.926Z,99866.32
2023-03-22T00:49:38.835Z,99867.28
2023-03-22T00:52:05.113Z,99864.80
2023-03-22T00:54:30.763Z,99872.22
2023-03-22T00:56:56.308Z,99866.44
2023-03-22T00:58:05.565Z,99876.30
2023-03-22T00:59:15.856Z,99878.11
2023-03-22T01:01:40.827Z,99869.48
2023-03-22T01:04:07.799Z,99870.80
2023-03-22T01:05:18.436Z,99876.12
2023-03-22T01:06:27.427Z,99873.44
2023-03-22T01:07:38.911Z,99869.87
2023-03-22T01:10:08.501Z,99873.48
2023-03-22T01:11:19.291Z,99875.12
2023-03-22T01:13:45.418Z,99867.35
2023-03-22T01:14:56.246Z,99869.02
2023-03-22T01:16:05.913Z,99872.67
2023-03-22T01:17:16.966Z,99879.77
2023-03-22T01:19:43.512Z,99872.73
2023-03-22T01:20:53.448Z,99873.52
2023-03-22T01:22:05.043Z,99879.01
2023-03-22T01:24:30.893Z,99874.16
2023-03-22T01:26:56.360Z,99871.70
2023-03-22T01:28:06.674Z,99877.75
2023-03-22T01:29:16.438Z,99869.05
2023-03-22T01:30:26.715Z,99877.22
2023-03-22T01:31:39.661Z,99876.26
2023-03-22T01:34:05.626Z,99873.98
2023-03-22T01:35:15.446Z,99878.22
2023-03-22T01:36:25.706Z,99869.16
2023-03-22T01:38:49.488Z,99881.50
2023-03-22T01:41:16.981Z,99883.42
2023-03-22T01:43:43.117Z,99885.38
2023-03-22T01:45:20.495Z,99894.10
2023-03-22T01:46:32.583Z,99894.10
2023-03-22T01:49:11.530Z,99893.14
2023-03-22T01:50:26.280Z,99896.72
2023-03-22T01:51:36.492Z,99906.70
2023-03-22T01:52:54.749Z,99898.11
2023-03-22T01:54:10.960Z,99900.06
2023-03-22T01:56:40.770Z,99908.42
2023-03-22T01:59:13.564Z,99906.93
2023-03-22T02:00:24.823Z,99902.55
2023-03-22T02:03:37.610Z,99897.48
2023-03-22T02:06:10.392Z,99908.77
2023-03-22T02:08:37.897Z,99899.22
2023-03-22T02:09:48.372Z,99911.81
2023-03-22T02:11:02.368Z,99908.25
2023-03-22T02:13:55.607Z,99907.06
2023-03-22T02:16:22.433Z,99906.98
2023-03-22T02:19:28.907Z,99906.64
2023-03-22T02:21:02.552Z,99913.20
2023-03-22T02:24:11.849Z,99910.00
2023-03-22T02:25:34.093Z,99911.59
2023-03-22T02:28:35.628Z,99911.52
2023-03-22T02:31:34.403Z,99911.92
2023-03-22T02:34:31.934Z,99905.70
2023-03-22T02:37:38.985Z,99914.94
2023-03-22T02:40:49.285Z,99921.59
2023-03-22T02:43:46.185Z,99909.42
2023-03-22T02:46:26.974Z,99914.23
2023-03-22T02:49:16.937Z,99912.63
2023-03-22T02:51:54.409Z,99924.97
2023-03-22T02:53:21.165Z,99925.14
2023-03-22T02:56:17.733Z,99920.89
2023-03-22T02:58:51.719Z,99926.55
2023-03-22T03:01:48.885Z,99931.39
2023-03-22T03:04:21.748Z,99928.89
2023-03-22T03:06:53.364Z,99929.10
2023-03-22T03:08:04.441Z,99934.23
2023-03-22T03:10:35.511Z,99940.70
2023-03-22T03:13:16.276Z,99936.19
2023-03-22T03:15:49.973Z,99947.77
2023-03-22T03:18:45.866Z,99947.03
2023-03-22T03:21:57.994Z,99950.45
2023-03-22T03:24:47.844Z,99952.95
2023-03-22T03:29:09.769Z,99960.01
2023-03-22T03:30:28.532Z,99964.39
2023-03-22T03:33:32.102Z,99963.86
2023-03-22T03:34:51.291Z,99964.60
2023-03-22T03:36:04.310Z,99967.28
2023-03-22T03:38:38.544Z,99969.22
2023-03-22T03:41:16.158Z,99972.01
2023-03-22T03:43:46.494Z,99972.78
2023-03-22T03:44:57.264Z,99972.44
2023-03-22T03:46:08.682Z,99977.91
2023-03-22T03:47:20.002Z,99972.44
2023-03-22T03:49:48.689Z,99974.41
2023-03-22T03:51:02.163Z,99974.16
2023-03-22T03:52:12.922Z,99976.84
2023-03-22T03:54:38.647Z,99967.95
2023-03-22T03:57:05.670Z,99965.27
2023-03-22T03:59:34.799Z,99976.98
2023-03-22T04:02:02.199Z,99965.61
2023-03-22T04:04:28.800Z,99971.05
2023-03-22T04:07:03.587Z,99972.75
2023-03-22T04:09:32.721Z,99966.54
2023-03-22T04:10:49.792Z,99972.59
2023-03-22T04:13:13.965Z,99974.59
2023-03-22T04:14:25.291Z,99976.16
2023-03-22T04:16:51.559Z,99974.38
2023-03-22T04:18:02.011Z,99972.48
2023-03-22T04:19:11.687Z,99975.38
2023-03-22T04:21:38.411Z,99978.52
2023-03-22T04:22:51.184Z,99980.19
2023-03-22T04:24:02.023Z,99984.81
2023-03-22T04:26:32.480Z,99971.08
2023-03-22T04:28:19.171Z,99982.53
2023-03-22T04:29:32.597Z,99992.41
2023-03-22T04:31:26.077Z,99984.47
2023-03-22T04:33:55.686Z,99986.65
2023-03-22T04:36:26.026Z,99989.12
2023-03-22T04:38:55.086Z,99991.80
2023-03-22T04:41:25.033Z,99982.69
2023-03-22T04:43:51.741Z,99979.80
2023-03-22T04:46:21.688Z,99985.80
2023-03-22T04:48:51.012Z,99991.94
2023-03-22T04:50:00.785Z,100000.59
2023-03-22T04:52:26.654Z,100003.14
2023-03-22T04:53:38.821Z,100010.25
2023-03-22T04:54:48.871Z,100006.52
2023-03-22T04:55:58.480Z,100006.86
2023-03-22T04:58:24.392Z,100007.02
2023-03-22T04:59:33.230Z,100008.77
2023-03-22T05:00:42.675Z,100005.13
2023-03-22T05:01:52.474Z,100011.38
2023-03-22T05:04:19.294Z,100004.95
2023-03-22T05:05:29.842Z,100018.09
2023-03-22T05:06:40.992Z,100018.09
2023-03-22T05:09:08.058Z,100019.14
2023-03-22T05:11:34.030Z,100015.39
2023-03-22T05:14:14.314Z,100023.97
2023-03-22T05:16:42.716Z,100020.44
2023-03-22T05:19:14.419Z,100028.16
2023-03-22T05:21:43.729Z,100020.78
2023-03-22T05:24:10.749Z,100024.86
2023-03-22T05:26:41.409Z,100029.78
2023-03-22T05:29:10.563Z,100028.09
2023-03-22T05:31:52.997Z,100031.19
2023-03-22T05:34:21.801Z,100032.36
2023-03-22T05:36:50.768Z,100027.55
2023-03-22T05:39:22.444Z,100028.32
2023-03-22T05:41:48.173Z,100033.59
2023-03-22T05:42:58.605Z,100045.72
2023-03-22T05:45:25.623Z,100037.78
2023-03-22T05:48:36.703Z,100037.78
2023-03-22T05:51:05.706Z,100034.13
2023-03-22T05:53:32.539Z,100041.67
2023-03-22T05:56:23.686Z,100044.56
2023-03-22T05:57:34.455Z,100048.44
2023-03-22T06:00:01.600Z,100040.05
2023-03-22T06:01:16.094Z,100049.38
2023-03-22T06:03:42.664Z,100051.08
2023-03-22T06:06:58.000Z,100057.16
2023-03-22T06:08:11.180Z,100069.22
2023-03-22T06:09:21.045Z,100067.06
2023-03-22T06:10:32.329Z,100068.56
2023-03-22T06:12:58.954Z,100073.03
2023-03-22T06:14:10.676Z,100073.70
2023-03-22T06:16:07.531Z,100076.72
2023-03-22T06:18:33.354Z,100078.63
2023-03-22T06:21:03.469Z,100080.44
2023-03-22T06:22:12.419Z,100086.67
2023-03-22T06:23:21.890Z,100083.28
2023-03-22T06:25:48.080Z,100078.37
2023-03-22T06:26:59.441Z,100083.03
2023-03-22T06:28:08.851Z,100082.55
2023-03-22T06:29:18.425Z,100080.23
2023-03-22T06:31:43.142Z,100081.28
2023-03-22T06:34:11.398Z,100082.62
2023-03-22T06:36:38.510Z,100075.13
2023-03-22T06:39:46.241Z,100085.41
2023-03-22T06:42:11.467Z,100082.69
2023-03-22T06:44:37.225Z,100079.04
2023-03-22T06:45:57.179Z,100085.09
2023-03-22T06:48:24.082Z,100082.79
2023-03-22T06:50:55.659Z,100085.80
2023-03-22T06:53:39.335Z,100082.22
2023-03-22T06:54:49.608Z,100097.27
2023-03-22T06:57:14.116Z,100094.88
2023-03-22T06:59:39.399Z,100086.87
2023-03-22T07:02:05.262Z,100078.98
2023-03-22T07:03:15.768Z,100087.71
2023-03-22T07:04:29.106Z,100090.17
2023-03-22T07:06:55.695Z,100085.84
2023-03-22T07:09:24.514Z,100092.14
2023-03-22T07:11:49.900Z,100080.34
2023-03-22T07:14:14.449Z,100083.14
2023-03-22T07:16:39.875Z,100087.17
2023-03-22T07:19:11.633Z,100087.41
2023-03-22T07:21:36.437Z,100094.00
2023-03-22T07:22:47.816Z,100089.74
2023-03-22T07:25:11.387Z,100098.78
2023-03-22T07:27:35.981Z,100090.28
2023-03-22T07:28:45.956Z,100099.17
2023-03-22T07:31:12.900Z,100102.41
2023-03-22T07:34:12.924Z,100098.98
2023-03-22T07:36:42.773Z,100096.22
2023-03-22T07:39:09.826Z,100097.81
2023-03-22T07:41:37.180Z,100092.27
2023-03-22T07:44:51.295Z,100093.28
2023-03-22T07:47:20.288Z,100092.06
2023-03-22T07:50:24.869Z,100094.30
2023-03-22T07:52:50.740Z,100093.11
2023-03-22T07:55:17.297Z,100096.67
2023-03-22T07:57:41.922Z,100100.45
2023-03-22T08:00:12.581Z,100092.53
2023-03-22T08:02:40.248Z,100097.14
2023-03-22T08:03:50.663Z,100099.53
2023-03-22T08:06:59.468Z,100097.62
2023-03-22T08:09:28.550Z,100094.27
2023-03-22T08:11:53.808Z,100091.92
2023-03-22T08:14:30.608Z,100096.78
2023-03-22T08:16:46.271Z,100098.84
2023-03-22T08:19:13.412Z,100102.30
2023-03-22T08:21:42.175Z,100098.50
2023-03-22T08:24:12.544Z,100096.41
2023-03-22T08:26:39.542Z,100104.52
2023-03-22T08:29:07.479Z,100103.67
2023-03-22T08:31:33.576Z,100096.28
2023-03-22T08:33:59.452Z,100103.27
2023-03-22T08:36:25.651Z,100100.24
2023-03-22T08:38:53.132Z,100102.31
2023-03-22T08:41:23.077Z,100101.97
2023-03-22T08:43:49.040Z,100102.81
2023-03-22T08:44:59.310Z,100104.59
2023-03-22T08:47:25.370Z,100101.13
2023-03-22T08:49:53.274Z,100098.55
2023-03-22T08:52:22.258Z,100103.08
2023-03-22T08:55:37.436Z,100102.23
2023-03-22T08:58:15.949Z,100099.19
2023-03-22T09:00:55.308Z,100100.78
2023-03-22T09:03:36.929Z,100090.95
2023-03-22T09:06:02.671Z,100102.95
2023-03-22T09:08:29.078Z,100096.96
2023-03-22T09:10:55.680Z,100093.15
2023-03-22T09:13:21.888Z,100095.72
2023-03-22T09:14:32.816Z,100092.06
2023-03-22T09:15:44.773Z,100100.17
2023-03-22T09:18:15.843Z,100099.60
2023-03-22T09:19:27.070Z,100100.24
2023-03-22T09:20:38.203Z,100104.40
2023-03-22T09:21:48.155Z,100101.19
2023-03-22T09:24:14.919Z,100093.72
2023-03-22T09:26:43.916Z,100104.02
2023-03-22T09:27:53.569Z,100099.41
2023-03-22T09:30:19.461Z,100101.19
2023-03-22T09:31:29.787Z,100110.83
2023-03-22T09:34:29.547Z,100108.97
2023-03-22T09:37:01.070Z,100104.09
2023-03-22T09:39:29.443Z,100112.07
2023-03-22T09:42:21.249Z,100101.13
2023-03-22T09:43:41.105Z,100105.34
2023-03-22T09:44:52.087Z,100109.50
2023-03-22T09:47:43.865Z,100108.19
2023-03-22T09:48:48.319Z,100110.69
2023-03-22T09:51:20.970Z,100100.64
2023-03-22T09:53:49.196Z,100107.63
2023-03-22T09:54:59.691Z,100114.00
2023-03-22T09:56:13.284Z,100112.14
2023-03-22T09:57:34.812Z,100110.88
2023-03-22T09:58:56.298Z,100114.05
2023-03-22T10:02:01.494Z,100109.88
2023-03-22T10:03:42.157Z,100106.98
2023-03-22T10:06:20.220Z,100104.06
2023-03-22T10:07:47.957Z,100107.45
2023-03-22T10:10:20.238Z,100104.33
2023-03-22T10:14:51.651Z,100105.45
2023-03-22T10:17:25.847Z,100099.77
2023-03-22T10:20:01.483Z,100096.41
2023-03-22T10:21:13.256Z,100103.08
2023-03-22T10:23:48.390Z,100097.33
2023-03-22T10:26:22.787Z,100096.95
2023-03-22T10:27:34.642Z,100102.45
2023-03-22T10:28:47.010Z,100102.32
2023-03-22T10:31:22.578Z,100100.78
2023-03-22T10:32:56.706Z,100098.17
2023-03-22T10:35:24.756Z,100097.89
2023-03-22T10:37:54.621Z,100099.61
2023-03-22T10:40:35.999Z,100101.86
2023-03-22T10:41:47.181Z,100104.80
2023-03-22T10:44:35.896Z,100102.00
2023-03-22T10:47:06.140Z,100088.19
2023-03-22T10:49:53.081Z,100096.77
2023-03-22T10:52:40.160Z,100098.34
2023-03-22T10:55:13.852Z,100101.05
2023-03-22T10:57:39.794Z,100089.77
2023-03-22T10:58:50.146Z,100104.24
2023-03-22T11:00:00.172Z,100098.13
2023-03-22T11:03:40.256Z,100093.88
2023-03-22T11:06:20.320Z,100100.83
2023-03-22T11:07:33.688Z,100096.63
2023-03-22T11:08:51.738Z,100097.75
2023-03-22T11:10:10.385Z,100106.00
2023-03-22T11:11:30.033Z,100102.28
2023-03-22T11:14:16.265Z,100099.11
2023-03-22T11:15:31.796Z,100097.61
2023-03-22T11:18:17.759Z,100092.39
2023-03-22T11:21:02.238Z,100093.97
2023-03-22T11:23:43.786Z,100090.39
2023-03-22T11:24:56.940Z,100094.03
2023-03-22T11:27:32.649Z,100089.55
2023-03-22T11:30:29.325Z,100084.14
2023-03-22T11:31:56.067Z,100086.80
2023-03-22T11:33:21.576Z,100089.23
2023-03-22T11:34:31.173Z,100089.50
2023-03-22T11:37:04.789Z,100075.28
2023-03-22T11:39:49.176Z,100076.16
2023-03-22T11:42:26.212Z,100080.31
2023-03-22T11:44:59.176Z,100077.33
2023-03-22T11:47:30.369Z,100074.94
2023-03-22T11:48:42.854Z,100080.87
2023-03-22T11:51:14.884Z,100069.70
2023-03-22T11:52:27.085Z,100067.67
2023-03-22T11:54:56.745Z,100074.28
2023-03-22T11:56:09.291Z,100071.29
2023-03-22T11:57:25.486Z,100071.85
2023-03-22T11:58:41.660Z,100072.00
2023-03-22T12:02:53.630Z,100065.94
2023-03-22T12:04:05.601Z,100074.98
2023-03-22T12:06:43.660Z,100062.47
2023-03-22T12:09:28.351Z,100066.58
2023-03-22T12:10:43.609Z,100067.67
2023-03-22T12:11:57.051Z,100063.38
2023-03-22T12:14:47.388Z,100065.00
2023-03-22T12:17:20.725Z,100065.31
2023-03-22T12:19:55.146Z,100068.87
2023-03-22T12:21:04.960Z,100072.14
2023-03-22T12:22:17.380Z,100070.13
2023-03-22T12:24:46.510Z,100058.84
2023-03-22T12:26:11.320Z,100064.81
2023-03-22T12:30:19.542Z,100057.73
2023-03-22T12:33:14.865Z,100068.27
2023-03-22T12:34:27.919Z,100060.27
2023-03-22T12:37:01.590Z,100064.84
2023-03-22T12:38:27.560Z,100064.92
2023-03-22T12:41:07.916Z,100058.98
2023-03-22T12:42:27.406Z,100060.05
2023-03-22T12:45:17.371Z,100051.98
2023-03-22T12:46:30.442Z,100051.08
2023-03-22T12:49:14.939Z,100049.14
2023-03-22T12:52:00.982Z,100047.42
2023-03-22T12:53:16.140Z,100045.67
2023-03-22T12:54:29.496Z,100041.24
2023-03-22T12:56:58.633Z,100040.45
2023-03-22T12:58:10.043Z,100043.95
2023-03-22T12:59:22.900Z,100044.80
2023-03-22T13:00:59.868Z,100043.80
2023-03-22T13:03:42.566Z,100030.77
2023-03-22T13:04:56.269Z,100039.66
2023-03-22T13:07:51.562Z,100035.30
2023-03-22T13:10:34.568Z,100037.27
2023-03-22T13:13:17.284Z,100033.58
2023-03-22T13:16:12.565Z,100035.61
2023-03-22T13:17:28.430Z,100040.96
2023-03-22T13:20:12.569Z,100029.63
2023-03-22T13:21:26.551Z,100036.67
2023-03-22T13:24:16.343Z,100029.06
2023-03-22T13:25:29.736Z,100032.70
2023-03-22T13:26:49.889Z,100032.98
2023-03-22T13:28:04.559Z,100038.39
2023-03-22T13:30:57.874Z,100033.33
2023-03-22T13:33:45.268Z,100027.91
2023-03-22T13:36:25.587Z,100026.44
2023-03-22T13:39:05.259Z,100028.76
2023-03-22T13:41:53.843Z,100030.14
2023-03-22T13:44:31.326Z,100032.53
2023-03-22T13:47:01.109Z,100034.25
2023-03-22T13:49:45.945Z,100031.69
2023-03-22T13:52:22.008Z,100027.85
2023-03-22T13:53:37.282Z,100033.37
2023-03-22T13:56:06.879Z,100027.71
2023-03-22T14:00:11.156Z,100017.17
2023-03-22T14:02:56.658Z,100026.72
2023-03-22T14:04:09.946Z,100025.68
2023-03-22T14:06:45.979Z,100026.44
2023-03-22T14:10:45.969Z,100025.29
2023-03-22T14:13:38.845Z,100020.27
2023-03-22T14:16:19.960Z,100026.41
2023-03-22T14:19:07.720Z,100018.02
2023-03-22T14:20:22.762Z,100024.66
